createdAt,value
2018-05-11T00:00:16.408Z,14.27
2018-05-11T00:02:43.053Z,14.21
2018-05-11T00:05:09.689Z,14.19
2018-05-11T00:07:36.368Z,14.21
2018-05-11T00:10:03.021Z,14.30
2018-05-11T00:12:29.684Z,14.29
2018-05-11T00:14:56.299Z,14.17
2018-05-11T00:17:22.926Z,14.15
2018-05-11T00:19:49.631Z,14.08
2018-05-11T00:22:17.232Z,14.13
2018-05-11T00:24:43.863Z,14.12
2018-05-11T00:27:10.499Z,14.08
2018-05-11T00:29:37.145Z,14.06
2018-05-11T00:32:03.755Z,14.04
2018-05-11T00:34:31.169Z,13.93
2018-05-11T00:36:58.685Z,14.01
2018-05-11T00:39:25.488Z,14.13
2018-05-11T00:41:52.088Z,14.06
2018-05-11T00:44:18.763Z,13.96
2018-05-11T00:46:45.392Z,13.98
2018-05-11T00:49:12.055Z,13.92
2018-05-11T00:51:39.437Z,13.90
2018-05-11T00:54:06.069Z,13.84
2018-05-11T00:56:33.538Z,13.85
2018-05-11T00:59:00.197Z,13.83
2018-05-11T01:01:27.752Z,13.86
2018-05-11T01:03:54.456Z,13.97
2018-05-11T01:06:21.854Z,13.82
2018-05-11T01:08:48.609Z,13.73
2018-05-11T01:11:15.234Z,13.68
2018-05-11T01:13:41.963Z,13.72
2018-05-11T01:16:08.577Z,13.73
2018-05-11T01:18:35.368Z,13.71
2018-05-11T01:21:02.057Z,13.66
2018-05-11T01:23:29.561Z,13.61
2018-05-11T01:25:56.202Z,13.52
2018-05-11T01:28:22.858Z,13.42
2018-05-11T01:30:49.741Z,13.42
2018-05-11T01:33:16.385Z,13.43
2018-05-11T01:35:43.057Z,13.58
2018-05-11T01:38:09.691Z,13.67
2018-05-11T01:40:37.210Z,13.78
2018-05-11T01:43:04.743Z,13.81
2018-05-11T01:45:31.365Z,13.64
2018-05-11T01:47:58.191Z,13.54
2018-05-11T01:50:24.836Z,13.70
2018-05-11T01:52:51.600Z,13.42
2018-05-11T01:55:18.257Z,13.41
2018-05-11T01:57:45.605Z,13.30
2018-05-11T02:00:12.225Z,13.29
2018-05-11T02:02:38.948Z,13.43
2018-05-11T02:05:05.596Z,13.42
2018-05-11T02:07:32.377Z,13.34
2018-05-11T02:09:59.956Z,13.48
2018-05-11T02:12:26.638Z,13.36
2018-05-11T02:14:54.044Z,13.28
2018-05-11T02:17:21.447Z,13.34
2018-05-11T02:19:48.102Z,13.39
2018-05-11T02:22:14.767Z,13.25
2018-05-11T02:24:42.184Z,13.18
2018-05-11T02:27:08.812Z,13.07
2018-05-11T02:29:35.531Z,13.00
2018-05-11T02:32:02.274Z,12.98
2018-05-11T02:34:28.904Z,12.90
2018-05-11T02:36:55.574Z,12.89
2018-05-11T02:39:22.347Z,12.78
2018-05-11T02:41:49.639Z,12.84
2018-05-11T02:44:16.338Z,12.97
2018-05-11T02:46:42.980Z,13.12
2018-05-11T02:49:09.841Z,13.21
2018-05-11T02:51:37.273Z,13.33
2018-05-11T02:54:03.895Z,13.38
2018-05-11T02:56:30.630Z,13.41
2018-05-11T02:58:57.274Z,13.15
2018-05-11T03:01:24.064Z,13.09
2018-05-11T03:03:51.424Z,13.01
2018-05-11T03:06:18.399Z,13.03
2018-05-11T03:08:45.035Z,12.79
2018-05-11T03:11:11.985Z,12.73
2018-05-11T03:13:38.647Z,12.53
2018-05-11T03:16:05.267Z,12.45
2018-05-11T03:18:32.116Z,12.51
2018-05-11T03:20:58.865Z,12.35
2018-05-11T03:23:25.672Z,12.22
2018-05-11T03:25:52.451Z,12.14
2018-05-11T03:28:19.173Z,12.09
2018-05-11T03:30:45.877Z,12.25
2018-05-11T03:33:12.535Z,12.45
2018-05-11T03:35:39.229Z,12.53
2018-05-11T03:38:05.900Z,12.67
2018-05-11T03:40:32.538Z,12.66
2018-05-11T03:42:59.170Z,12.29
2018-05-11T03:45:25.938Z,12.19
2018-05-11T03:47:52.588Z,12.13
2018-05-11T03:50:19.215Z,12.27
2018-05-11T03:52:45.869Z,12.30
2018-05-11T03:55:12.491Z,12.27
2018-05-11T03:57:39.153Z,12.16
2018-05-11T04:00:05.875Z,12.11
2018-05-11T04:02:51.767Z,12.16
2018-05-11T04:05:36.853Z,12.03
2018-05-11T04:08:22.220Z,11.95
2018-05-11T04:10:49.205Z,12.02
2018-05-11T04:13:15.805Z,11.93
2018-05-11T04:15:43.160Z,11.94
2018-05-11T04:18:10.603Z,11.98
2018-05-11T04:20:38.032Z,12.13
2018-05-11T04:23:04.553Z,12.11
2018-05-11T04:25:31.275Z,12.38
2018-05-11T04:27:57.930Z,12.55
2018-05-11T04:30:24.602Z,12.79
2018-05-11T04:32:51.218Z,12.97
2018-05-11T04:35:17.933Z,12.91
2018-05-11T04:37:44.718Z,12.74
2018-05-11T04:40:12.090Z,12.62
2018-05-11T04:42:38.709Z,12.74
2018-05-11T04:45:06.068Z,13.02
2018-05-11T04:47:33.414Z,13.19
2018-05-11T04:50:00.808Z,13.43
2018-05-11T04:52:27.526Z,13.64
2018-05-11T04:54:54.393Z,13.50
2018-05-11T04:57:21.006Z,13.48
2018-05-11T04:59:48.376Z,13.34
2018-05-11T05:02:15.213Z,13.24
2018-05-11T05:04:41.930Z,13.24
2018-05-11T05:07:09.279Z,13.23
2018-05-11T05:09:36.602Z,13.04
2018-05-11T05:12:03.249Z,13.00
2018-05-11T05:14:29.862Z,13.14
2018-05-11T05:16:56.598Z,13.27
2018-05-11T05:19:23.367Z,12.89
2018-05-11T05:21:49.966Z,12.72
2018-05-11T05:24:16.658Z,12.84
2018-05-11T05:26:44.574Z,13.04
2018-05-11T05:29:11.159Z,13.28
2018-05-11T05:31:37.867Z,13.42
2018-05-11T05:34:04.442Z,13.67
2018-05-11T05:36:31.138Z,13.70
2018-05-11T05:38:57.827Z,13.90
2018-05-11T05:41:24.473Z,13.79
2018-05-11T05:43:51.201Z,13.63
2018-05-11T05:46:18.587Z,13.40
2018-05-11T05:48:45.292Z,13.56
2018-05-11T05:51:11.932Z,13.65
2018-05-11T05:53:38.756Z,13.59
2018-05-11T05:56:05.432Z,13.49
2018-05-11T05:58:32.036Z,13.59
2018-05-11T06:00:58.767Z,13.83
2018-05-11T06:03:25.458Z,14.11
2018-05-11T06:05:52.058Z,14.09
2018-05-11T06:08:18.808Z,13.82
2018-05-11T06:10:45.427Z,14.11
2018-05-11T06:13:12.513Z,13.98
2018-05-11T06:15:39.468Z,14.25
2018-05-11T06:18:06.004Z,14.57
2018-05-11T06:20:32.725Z,14.87
2018-05-11T06:22:59.438Z,15.24
2018-05-11T06:25:26.032Z,15.53
2018-05-11T06:27:52.764Z,15.77
2018-05-11T06:30:19.316Z,15.58
2018-05-11T06:32:46.031Z,15.38
2018-05-11T06:35:12.885Z,15.47
2018-05-11T06:37:39.588Z,15.20
2018-05-11T06:40:06.909Z,15.05
2018-05-11T06:42:33.645Z,15.37
2018-05-11T06:45:00.332Z,15.43
2018-05-11T06:47:26.931Z,15.43
2018-05-11T06:49:53.609Z,14.85
2018-05-11T06:52:20.366Z,15.03
2018-05-11T06:54:46.974Z,15.20
2018-05-11T06:57:14.295Z,15.36
2018-05-11T06:59:41.048Z,15.04
2018-05-11T07:02:07.783Z,15.31
2018-05-11T07:04:34.449Z,15.15
2018-05-11T07:07:01.794Z,15.15
2018-05-11T07:09:29.175Z,15.30
2018-05-11T07:11:55.957Z,15.53
2018-05-11T07:14:22.616Z,15.84
2018-05-11T07:16:49.330Z,16.21
2018-05-11T07:19:15.944Z,16.58
2018-05-11T07:21:42.604Z,16.53
2018-05-11T07:24:09.185Z,16.27
2018-05-11T07:26:36.715Z,16.22
2018-05-11T07:29:03.468Z,16.33
2018-05-11T07:31:30.729Z,16.59
2018-05-11T07:33:58.110Z,16.79
2018-05-11T07:36:24.728Z,16.90
2018-05-11T07:38:52.039Z,16.98
2018-05-11T07:41:18.778Z,17.09
2018-05-11T07:43:46.103Z,17.15
2018-05-11T07:46:12.854Z,16.75
2018-05-11T07:48:39.471Z,16.74
2018-05-11T07:51:06.324Z,17.04
2018-05-11T07:53:32.979Z,16.91
2018-05-11T07:56:00.340Z,16.90
2018-05-11T07:58:27.010Z,17.21
2018-05-11T08:00:53.710Z,17.28
2018-05-11T08:03:20.364Z,17.36
2018-05-11T08:05:47.045Z,17.67
2018-05-11T08:08:14.481Z,17.30
2018-05-11T08:10:41.329Z,17.46
2018-05-11T08:13:07.966Z,17.53
2018-05-11T08:15:34.606Z,17.68
2018-05-11T08:18:01.305Z,17.72
2018-05-11T08:20:27.954Z,17.29
2018-05-11T08:22:54.670Z,17.63
2018-05-11T08:25:21.260Z,17.59
2018-05-11T08:27:48.183Z,17.40
2018-05-11T08:30:14.827Z,17.45
2018-05-11T08:32:41.638Z,17.49
2018-05-11T08:35:08.400Z,17.57
2018-05-11T08:37:36.131Z,17.89
2018-05-11T08:40:02.787Z,18.26
2018-05-11T08:42:30.671Z,18.65
2018-05-11T08:44:57.301Z,18.95
2018-05-11T08:47:23.931Z,18.92
2018-05-11T08:49:50.659Z,19.00
2018-05-11T08:52:17.345Z,18.92
2018-05-11T08:54:44.778Z,19.06
2018-05-11T08:57:12.262Z,19.18
2018-05-11T08:59:38.818Z,19.47
2018-05-11T09:02:05.430Z,19.69
2018-05-11T09:04:32.069Z,19.75
2018-05-11T09:06:58.770Z,19.85
2018-05-11T09:09:25.391Z,19.94
2018-05-11T09:11:52.006Z,19.77
2018-05-11T09:14:18.619Z,19.78
2018-05-11T09:16:45.319Z,19.77
2018-05-11T09:19:11.993Z,19.53
2018-05-11T09:21:38.581Z,18.81
2018-05-11T09:24:05.339Z,18.63
2018-05-11T09:26:32.076Z,18.16
2018-05-11T09:28:58.758Z,18.22
2018-05-11T09:31:25.394Z,18.46
2018-05-11T09:33:53.265Z,18.72
2018-05-11T09:36:19.869Z,18.79
2018-05-11T09:38:46.527Z,18.64
2018-05-11T09:41:13.127Z,18.18
2018-05-11T09:43:39.758Z,17.60
2018-05-11T09:46:07.211Z,17.79
2018-05-11T09:48:33.906Z,18.11
2018-05-11T09:51:00.550Z,18.34
2018-05-11T09:53:27.258Z,18.26
2018-05-11T09:55:53.938Z,18.21
2018-05-11T09:58:21.383Z,18.17
2018-05-11T10:00:48.047Z,18.18
2018-05-11T10:03:15.463Z,18.03
2018-05-11T10:05:42.209Z,18.05
2018-05-11T10:08:09.666Z,18.22
2018-05-11T10:10:36.338Z,18.23
2018-05-11T10:13:02.931Z,18.31
2018-05-11T10:15:29.666Z,18.44
2018-05-11T10:17:56.264Z,18.34
2018-05-11T10:20:23.650Z,18.51
2018-05-11T10:22:50.279Z,18.82
2018-05-11T10:25:16.889Z,19.11
2018-05-11T10:27:43.579Z,19.43
2018-05-11T10:30:10.274Z,19.65
2018-05-11T10:32:36.904Z,19.64
2018-05-11T10:35:03.623Z,19.64
2018-05-11T10:37:31.132Z,18.81
2018-05-11T10:39:57.841Z,18.83
2018-05-11T10:42:26.077Z,18.81
2018-05-11T10:44:52.787Z,19.01
2018-05-11T10:47:19.394Z,19.18
2018-05-11T10:49:46.746Z,19.43
2018-05-11T10:52:13.575Z,19.74
2018-05-11T10:54:40.218Z,19.88
2018-05-11T10:57:06.867Z,20.09
2018-05-11T10:59:33.538Z,20.38
2018-05-11T11:02:00.279Z,20.31
2018-05-11T11:04:27.065Z,20.32
2018-05-11T11:06:54.596Z,20.31
2018-05-11T11:09:21.249Z,20.26
2018-05-11T11:11:48.605Z,20.34
2018-05-11T11:14:16.008Z,20.37
2018-05-11T11:16:42.621Z,20.45
2018-05-11T11:19:09.303Z,20.34
2018-05-11T11:21:35.991Z,20.34
2018-05-11T11:24:02.770Z,20.36
2018-05-11T11:26:30.267Z,20.28
2018-05-11T11:28:56.884Z,20.57
2018-05-11T11:31:24.376Z,20.53
2018-05-11T11:33:51.881Z,20.42
2018-05-11T11:36:18.599Z,20.26
2018-05-11T11:38:45.182Z,20.27
2018-05-11T11:41:11.819Z,20.25
2018-05-11T11:43:38.640Z,20.28
2018-05-11T11:46:05.278Z,20.46
2018-05-11T11:48:31.895Z,20.29
2018-05-11T11:50:58.502Z,20.35
2018-05-11T11:53:25.988Z,20.33
2018-05-11T11:55:52.769Z,20.28
2018-05-11T11:58:19.545Z,20.38
2018-05-11T12:00:47.004Z,20.73
2018-05-11T12:03:13.918Z,20.82
2018-05-11T12:05:40.634Z,20.43
2018-05-11T12:08:07.248Z,20.55
2018-05-11T12:10:34.058Z,20.79
2018-05-11T12:13:01.411Z,20.98
2018-05-11T12:15:28.845Z,21.23
2018-05-11T12:17:55.410Z,21.25
2018-05-11T12:20:22.783Z,21.12
2018-05-11T12:22:49.428Z,20.86
2018-05-11T12:25:16.918Z,20.90
2018-05-11T12:27:43.522Z,20.83
2018-05-11T12:30:10.129Z,20.90
2018-05-11T12:32:37.521Z,21.23
2018-05-11T12:35:04.111Z,21.55
2018-05-11T12:37:31.446Z,21.81
2018-05-11T12:39:58.059Z,22.04
2018-05-11T12:42:24.911Z,21.97
2018-05-11T12:44:51.614Z,22.09
2018-05-11T12:47:18.465Z,22.10
2018-05-11T12:49:45.132Z,22.27
2018-05-11T12:52:11.791Z,22.44
2018-05-11T12:54:38.456Z,22.60
2018-05-11T12:57:05.132Z,22.75
2018-05-11T12:59:31.815Z,21.98
2018-05-11T13:01:58.593Z,21.84
2018-05-11T13:04:25.257Z,22.16
2018-05-11T13:06:51.887Z,22.62
2018-05-11T13:09:18.579Z,22.74
2018-05-11T13:11:45.922Z,22.85
2018-05-11T13:14:12.511Z,23.14
2018-05-11T13:16:39.104Z,23.31
2018-05-11T13:19:05.746Z,23.54
2018-05-11T13:21:33.110Z,23.70
2018-05-11T13:24:00.466Z,23.84
2018-05-11T13:26:27.074Z,24.11
2018-05-11T13:28:54.541Z,24.30
2018-05-11T13:31:21.304Z,24.61
2018-05-11T13:33:47.896Z,24.79
2018-05-11T13:36:14.482Z,24.10
2018-05-11T13:38:41.214Z,23.45
2018-05-11T13:41:08.535Z,23.46
2018-05-11T13:43:35.140Z,24.06
2018-05-11T13:46:01.799Z,24.81
2018-05-11T13:48:28.524Z,25.16
2018-05-11T13:50:55.083Z,24.90
2018-05-11T13:53:21.798Z,24.37
2018-05-11T13:55:48.608Z,23.91
2018-05-11T13:58:15.383Z,24.05
2018-05-11T14:00:41.985Z,24.32
2018-05-11T14:03:08.685Z,24.43
2018-05-11T14:05:35.302Z,24.79
2018-05-11T14:08:01.994Z,24.58
2018-05-11T14:10:28.632Z,24.60
2018-05-11T14:12:55.245Z,24.26
2018-05-11T14:15:21.886Z,24.16
2018-05-11T14:17:49.336Z,23.81
2018-05-11T14:20:16.813Z,23.98
2018-05-11T14:22:44.412Z,24.62
2018-05-11T14:25:11.606Z,25.27
2018-05-11T14:27:38.294Z,25.22
2018-05-11T14:30:04.918Z,25.17
2018-05-11T14:32:31.667Z,24.54
2018-05-11T14:34:58.270Z,24.05
2018-05-11T14:37:25.658Z,23.65
2018-05-11T14:39:52.436Z,24.32
2018-05-11T14:42:19.082Z,24.88
2018-05-11T14:44:45.870Z,25.37
2018-05-11T14:47:12.570Z,25.96
2018-05-11T14:49:39.307Z,26.25
2018-05-11T14:52:06.031Z,26.18
2018-05-11T14:54:32.681Z,25.44
2018-05-11T14:56:59.303Z,24.79
2018-05-11T14:59:25.969Z,25.50
2018-05-11T15:01:52.600Z,26.12
2018-05-11T15:04:19.322Z,26.54
2018-05-11T15:06:48.475Z,26.58
2018-05-11T15:09:15.081Z,26.45
2018-05-11T15:11:41.878Z,26.13
2018-05-11T15:14:08.468Z,26.06
2018-05-11T15:16:35.849Z,26.25
2018-05-11T15:19:02.468Z,26.15
2018-05-11T15:21:29.816Z,25.88
